Aviation Digital Data Service (ADDS)

Output produced by METARs form (1555 UTC 23 April 2017)
found at http://www.aviationweather.gov/adds/metars/
 
KMAF 231120Z 2312/2412 06008KT P6SM SKC 
     FM231900 14010KT P6SM SKC
       
KMBG 231249Z 2313/2412 08019G26KT P6SM OVC006 
     FM231600 09017G24KT P6SM BKN009 OVC250 
     FM231900 09018KT P6SM SCT015 BKN250 
     FM240900 06011KT P6SM OVC070
       
KMBS 231122Z 2312/2412 21004KT P6SM SKC 
     FM231500 26009KT P6SM SKC 
     FM232200 06011KT P6SM SKC
       
KMCB 231427Z 2314/2412 33012KT P6SM BKN013 OVC040 
     FM231600 34012KT P6SM BKN040 
     FM240000 34010KT P6SM SCT080 
     FM240300 33005KT P6SM SCT150
       
KMCE 231120Z 2312/2412 34010KT P6SM SKC 
     FM231700 32013G19KT P6SM SKC 
     FM240800 33009KT P6SM OVC250
       
TAF KMCF 230800Z 2308/2414 20006KT 9999 BKN050 QNH2981INS 
     BECMG 2315/2316 20009KT 9000 -SHRA VCTS SCT025CB OVC040 QNH2977INS 
     BECMG 2322/2323 26009KT 9999 NSW FEW015 BKN030 QNH2974INS 
     BECMG 2413/2414 27010G25KT 9999 FEW020 SCT030 QNH2974INS TX31/2400Z TN20/2312Z
       
KMCI 231120Z 2312/2412 VRB03KT P6SM SKC 
     FM241000 16007KT P6SM SKC
       
KMCK 231126Z 2312/2412 21006KT P6SM SKC 
     FM231500 20012KT P6SM SKC 
     FM231600 19015G25KT P6SM FEW250 
     FM240300 16015G23KT P6SM FEW250 
     FM240400 16015G23KT P6SM FEW250 WS020/18045KT 
     FM240700 16016G24KT P6SM SCT200 
     FM240900 16015G23KT P6SM SCT200 WS020/20040KT
       
KMCN 231120Z 2312/2412 05005KT P6SM VCSH SCT050 BKN080 
     FM231600 22006KT P6SM VCSH BKN025 
     TEMPO 2319/2323 4SM TSRA BKN015CB 
     FM232300 28008KT P6SM VCSH BKN020 
     FM240400 27004KT 4SM BR OVC008
       
KMCO 231504Z 2315/2412 16008KT P6SM VCSH SCT025 BKN090 
     FM231800 11008KT P6SM VCSH SCT035 BKN060 
     FM240300 VRB04KT P6SM SCT035 BKN200
       
KMCW 231130Z 2312/2412 24007KT P6SM SKC 
     FM231600 22011KT P6SM SKC 
     FM232300 18009KT P6SM FEW250 
     FM240900 16010KT P6SM SCT230 WS020/20040KT
       
KMDT 231540Z 2316/2412 VRB04KT P6SM BKN250 
     FM241000 10004KT P6SM BKN100
       
KMDW 231504Z 2315/2412 30004KT P6SM FEW250 
     FM231900 09008KT P6SM FEW250 
     FM240200 05006KT P6SM FEW250
       
KMEI 231120Z 2312/2412 30007KT P6SM BKN015 OVC090 
     FM231900 31010G21KT P6SM BKN025 
     FM240200 32007KT P6SM BKN025
       
KMEM 231452Z 2315/2412 35012KT 6SM -DZ FEW020 BKN035 
     FM231700 36012G18KT P6SM BKN025 OVC045 
     FM231900 36014G20KT P6SM OVC035 
     FM232100 36014G20KT P6SM BKN045 
     FM240100 01006KT P6SM SKC
       
KMER 231120Z 2312/2412 34008KT P6SM SKC 
     FM231700 33013G19KT P6SM SKC 
     FM240800 33009KT P6SM OVC250
       
KMFE 231120Z 2312/2412 36017KT P6SM -DZ OVC035 
     FM231800 34010KT P6SM SCT050
       
KMFR 231202Z 2312/2412 VRB03KT P6SM FEW030 BKN050 
     FM232100 32010KT P6SM FEW040 BKN060 BKN150 
     FM240200 30007KT P6SM VCSH FEW035 BKN090 OVC120 
     FM240600 VRB03KT 6SM -RA BR SCT025 BKN035 OVC050
       
TAF AMD KMGE 231530Z 2315/2419 14009KT 9000 -SHRA BKN015 OVC040 QNH2978INS 
     BECMG 2317/2318 28009KT 6000 -SHRA VCTS BKN015 OVC020CB QNH2973INS 
     TEMPO 2318/2320 29015G20KT 4800 -TSRA BR OVC010CB 
     BECMG 2322/2323 33009KT 9999 NSW BKN005 OVC010 QNH2972INS 
     BECMG 2416/2417 34006KT 9999 BKN020 QNH2974INS TX21/2321Z TN16/2411Z
       
KMGM 231517Z 2315/2412 29008KT 6SM -RA BR BKN015 
     FM231700 29008KT P6SM BKN025 
     FM240400 30010KT P6SM OVC015
       
KMGW 231319Z 2313/2412 08007KT P6SM SCT250 
     FM240900 05007KT P6SM OVC050
       
KMHK 231120Z 2312/2412 VRB04KT P6SM SKC 
     FM231800 19009KT P6SM SKC 
     FM240900 18010KT P6SM SKC WS020/19045KT
       
KMHR 231130Z 2312/2412 13007KT P6SM FEW100 OVC200 
     FM231700 VRB05KT P6SM FEW050 SCT250 
     FM240000 22010KT P6SM BKN150 AMD NOT SKED
       
KMHT 231124Z 2312/2412 02004KT P6SM SKC
       
KMIA 231504Z 2315/2412 15010KT P6SM -SHRA SCT015 BKN040 OVC060 
     TEMPO 2315/2317 VRB15KT 3SM TSRA SCT005CB BKN015 
     FM232000 24010KT P6SM VCSH FEW015 SCT030 BKN120 
     FM240200 VRB05KT P6SM FEW250
       
TAF AMD KMIB 231545Z 2315/2415 09012KT 1600 -SN BKN015 BKN030 620159 QNH2983INS 
     BECMG 2402/2403 09012KT 9999 NSW SCT010 BKN025 620707 QNH2999INS 
     BECMG 2408/2409 08012KT 9999 SCT010 BKN015 OVC025 620202 620706 QNH2968INS 
     TEMPO 2409/2412 -FZRA 690002 
     BECMG 2411/2412 07012KT 8000 -PL SCT007 BKN010 OVC020 690102 620709 QNH2963INS 
     BECMG 2413/2414 05012KT 8000 -SN SCT010 BKN020 OVC035 620209 QNH2960INS TX00/2321Z TNM03/2409Z
       
KMIV 231132Z 2312/2412 03008KT P6SM SCT250 
     FM231700 08006KT P6SM SCT200 
     FM232100 13006KT P6SM SCT150 
     FM240500 08004KT P6SM BKN100 
     PROB30 2409/2412 4SM -SHRA OVC040
       
KMKE 231510Z 2315/2418 27008KT P6SM FEW250 
     FM231900 02011G19KT P6SM FEW250 
     FM232100 04010G17KT P6SM FEW025 
     FM240200 03006KT P6SM FEW040 SCT200
       
KMKL 231550Z 2316/2412 35010KT 4SM -SHRA BR BKN007 OVC010 
     FM231900 36012G18KT P6SM VCSH OVC025 
     FM232200 36012G18KT P6SM OVC035 
     FM240000 36005KT P6SM BKN045 
     FM240300 35004KT P6SM SKC
       
KMLB 231124Z 2312/2412 VRB05KT P6SM VCSH FEW018 SCT070 SCT120 
     FM231500 12011KT P6SM VCSH SCT025 BKN050 
     FM240000 12007KT P6SM SCT035 BKN200
       
KMLI 231127Z 2312/2412 VRB03KT P6SM SKC
       
KMLS 231346Z 2314/2412 07010KT P6SM OVC007 
     TEMPO 2314/2316 FEW007 BKN120 
     FM231600 08010KT P6SM BKN100 
     FM231900 10015KT P6SM BKN090 
     FM240300 33010KT P6SM VCSH SCT025 BKN050
       
KMLU 231153Z 2312/2412 34010KT P6SM BKN015 OVC025 
     FM231500 35012G16KT P6SM OVC015 
     FM231900 35012G18KT P6SM SCT025 BKN040 
     FM232100 35013KT P6SM BKN045 
     FM240000 01008KT P6SM SKC
       
KMMH 231331Z 2314/2412 20016G28KT P6SM FEW120 SCT200 
     FM231700 25016G28KT P6SM SCT120 SCT200 
     FM232300 28016G26KT P6SM FEW120 SCT200
       
TAF KMMT 231500Z 2315/2421 04009KT 9999 OVC012 QNH2985INS 
     BECMG 2318/2319 12012KT 4800 -SHRA VCTS BKN035CB QNH2978INS 
     TEMPO 2400/2404 14012G18KT 1600 +TSRA OVC025CB 
     BECMG 2408/2409 14006KT 9999 -SHRA BKN012 QNH2977INS 
     BECMG 2411/2412 16012KT 4800 -SHRA BR BKN006 QNH2971INS 
     BECMG 2414/2415 16010G15KT 8000 -SHRA OVC012 QNH2973INS TX25/2320Z TN18/2408Z
       
KMOB 231411Z 2314/2412 31008KT P6SM FEW005 BKN026 OVC120 
     TEMPO 2314/2316 SHRA BKN008 BKN025 
     FM231600 33009KT P6SM BKN015 
     FM231800 33012KT P6SM SCT250 
     FM240300 32006KT P6SM SKC
       
KMOT 231546Z 2316/2412 08015KT 1SM -SN OVC010 
     TEMPO 2316/2317 3SM -SN OVC025 
     FM231700 10016G24KT P6SM OVC030 
     FM231900 10016G24KT P6SM OVC015 
     FM240800 08012G20KT P6SM OVC008 
     FM241000 06010KT P6SM OVC008 
     FM241100 05010KT 4SM -SN OVC008
       
KMPV 231135Z 2312/2412 22007KT P6SM SKC 
     FM240500 29005KT P6SM FEW200 
     FM240900 32005KT P6SM SCT045 
     FM241100 35004KT P6SM BKN045
       
KMRY 231453Z 2315/2412 24005KT P6SM SCT022 SCT150 
     FM231700 27011G18KT P6SM FEW025 SCT200 
     FM240500 23007KT P6SM BKN020
       
KMRB 231503Z 2315/2412 05005KT P6SM FEW045 SCT250 
     FM232200 11004KT P6SM SCT045 BKN250 
     FM240600 00000KT P6SM -RA SCT030 OVC040 
     FM241000 VRB03KT P6SM -RA SCT025 OVC030
       
KMSL 231129Z 2312/2412 34006KT 6SM BR VCSH OVC006 
     FM231700 33007KT P6SM -RA SCT004 OVC009 
     FM232100 30010KT P6SM OVC015 
     FM240400 35005KT P6SM BKN009
       
KMSO 231131Z 2312/2412 32010KT P6SM VCSH SCT050 OVC080 
     FM231230 31010G15KT P6SM -RA SCT020 OVC030 
     FM231800 29010KT P6SM VCSH SCT040 BKN100
       
KMSN 231513Z 2315/2412 25005KT P6SM FEW250 
     FM231600 27009KT P6SM FEW250 
     FM232300 07007KT P6SM FEW250 
     FM240200 10004KT P6SM SKC
       
KMSP 231456Z 2315/2418 06008KT P6SM SCT250 
     FM232000 13006KT P6SM SCT250 
     FM240900 15007KT P6SM BKN200 WS020/21040KT 
     FM241500 16012G20KT P6SM BKN200
       
KMSS 231135Z 2312/2412 22008KT P6SM SKC 
     FM231700 23012KT P6SM FEW250 
     FM240500 21008KT P6SM BKN070 
     FM240800 05006KT P6SM BKN070
       
KMSY 231425Z 2314/2412 29010KT P6SM BKN015 BKN025 
     FM231600 34011G24KT P6SM BKN020 
     FM231900 33011G24KT P6SM SCT035 
     FM240200 35013G24KT P6SM FEW140 
     FM240600 34008KT P6SM FEW250
       
TAF KMTC 230900Z 2309/2415 VRB06KT 9999 FEW250 QNH3003INS WND 07009KT AFT 2413 TX18/2321Z TN00/2310Z LAST NO AMDS AFT 2309 NEXT 2311
       
KMTH 231123Z 2312/2412 13008KT P6SM SCT019 BKN100 
     FM231500 17006KT P6SM SCT019 SCT100 
     FM231800 25007KT P6SM SCT019
       
KMTJ 231123Z 2312/2412 14008KT P6SM SCT250 
     FM231800 23010KT P6SM FEW250 
     FM232000 22015G25KT P6SM SCT200 
     FM240200 20010KT P6SM SCT200 WS020/25030KT 
     FM240600 17006KT P6SM SCT200
       
KMTN 231503Z 2315/2412 05006KT P6SM SCT035 BKN250 
     FM232100 11005KT P6SM SCT045 BKN200 
     FM240600 08004KT P6SM -RA SCT025 OVC070
       
KMTW 231517Z 2315/2412 04011G20KT P6SM SKC 
     FM232000 05009KT P6SM BKN035 BKN070 
     FM240800 06006KT P6SM FEW050 SCT200
       
TAF KMUO 231006Z 2310/2416 09012KT 9999 SCT150 QNH2985INS 
     BECMG 2312/2313 16009KT 9999 BKN030 QNH2984INS 
     BECMG 2318/2319 31009KT 9999 SCT030 QNH2982INS 
     TEMPO 2321/2401 VRB15G25KT 9000 -TSRA BKN030CB 
     BECMG 2411/2412 11009KT 9999 OVC040 QNH2979INS TX20/2321Z TN07/2410Z
       
KMWH 231139Z 2312/2412 22005KT P6SM OVC200 
     FM232100 22012KT P6SM SCT070 BKN120 
     FM240000 23010KT P6SM VCSH BKN070 BKN120 
     FM240300 23010KT P6SM SCT080 BKN200 
     FM240900 21007KT P6SM OVC120
       
TAF AMD KMXF 231540Z 2315/2417 29009KT 9999 FEW006 QNH2980INS 
     BECMG 2403/2404 29009KT 9999 BKN015 QNH2979INS 
     BECMG 2414/2415 31009KT 9999 SCT020 QNH2984INS TX19/2322Z TN11/2411Z
       
KMYL 231121Z 2312/2412 VRB06KT 6SM -SHRA BR OVC025 
     TEMPO 2313/2317 2SM -SHRA BR OVC015 
     FM231900 25006KT 5SM -SHRA BR OVC025 
     FM240000 VRB05KT 5SM -SHRA BR OVC050
       
KMYR 231137Z 2312/2412 VRB04KT P6SM OVC025 
     TEMPO 2312/2314 4SM SHRA OVC010 
     FM231700 15008KT P6SM VCSH BKN020 
     FM231900 15011KT P6SM VCSH BKN050 
     FM232200 14012G20KT P6SM -SHRA BKN045 
     FM240000 15010KT 3SM SHRA BR BKN015